Flight Track Log - Related Links

Times and Time Zones

All times are in EDT time to prevent confusion due to time zone crossing. See the N9133G flight status page for this flight to view local times or setup timezone preferences in your user account.

Time Position Orientation Groundspeed Altitude Reporting Facility
EDT Latitude Longitude Course Direction KTS MPH feet Rate Location/Type
Fri 02:16:34 PM 48.5103 -123.0258 174° South 106 122 400  Level Seattle Center
Fri 02:17:28 PM 48.4825 -123.0217 174° South 111 128 1,500 1,096 Climbing Seattle Center
Fri 02:18:29 PM 48.4489 -123.0208 179° South 129 148 2,500 1,033 Climbing Seattle Center
Fri 02:19:30 PM 48.4114 -123.0219 181° South 134 154 3,600 1,067 Climbing Seattle Center
Fri 02:20:44 PM 48.3728 -123.0181 176° South 129 148 4,900 1,067 Climbing Seattle Center
Fri 02:21:45 PM 48.3367 -123.0178 180° South 130 150 6,000 1,180 Climbing Seattle Center
Fri 02:22:46 PM 48.2922 -123.0158 178° South 130 150 7,300 1,180 Climbing Seattle Center
Fri 02:23:47 PM 48.2564 -123.0175 182° South 128 147 8,400 1,082 Climbing Seattle Center
Fri 02:24:48 PM 48.2214 -123.0150 177° South 128 147 9,500 1,073 Climbing Seattle Center
Fri 02:25:50 PM 48.1853 -123.0142 179° South 128 147 10,600 1,073 Climbing Seattle Center
Fri 02:26:51 PM 48.1497 -123.0119 178° South 128 147 11,700 1,033 Climbing Seattle Center
Fri 02:27:52 PM 48.1136 -123.0114 179° South 131 151 12,700 934 Climbing Seattle Center
Fri 02:28:53 PM 48.0767 -123.0128 181° South 135 155 13,600 984 Climbing Seattle Center
Fri 02:29:54 PM 48.0303 -123.0111 179° South 140 161 14,700 1,033 Climbing Seattle Center
Fri 02:30:55 PM 47.9919 -123.0097 179° South 139 160 15,700 976 Climbing Seattle Center
Fri 02:31:57 PM 47.9536 -123.0089 179° South 142 163 16,700 878 Climbing Seattle Center
Fri 02:32:58 PM 47.9125 -123.0083 179° South 149 171 17,500 738 Climbing Seattle Center
Fri 02:33:59 PM 47.8714 -123.0086 180° South 149 171 18,200 787 Climbing Seattle Center
Fri 02:35:00 PM 47.8294 -123.0078 179° South 152 175 19,100 836 Climbing Seattle Center
Fri 02:36:01 PM 47.7858 -123.0072 180° South 159 183 19,900 885 Climbing Seattle Center
Fri 02:37:02 PM 47.7336 -123.0044 178° South 161 185 20,900 829 Climbing Seattle Center
Fri 02:38:04 PM 47.6875 -123.0061 181° South 167 192 21,600 683 Climbing Seattle Center
Fri 02:39:05 PM 47.6406 -123.0053 179° South 170 196 22,300 689 Climbing Seattle Center
Fri 02:40:06 PM 47.5933 -123.0047 180° South 171 197 23,000 344 Climbing Seattle Center
Fri 02:41:07 PM 47.5436 -123.0042 180° South 177 204 23,000  Level Seattle Center
Fri 02:42:08 PM 47.4922 -123.0044 180° South 185 213 23,000  Level Seattle Center
Fri 02:43:09 PM 47.4294 -123.0036 179° South 189 217 23,000  Level Seattle Center
Fri 02:44:10 PM 47.3783 -123.0017 179° South 187 215 23,000  Level Seattle Center
Fri 02:45:12 PM 47.3258 -123.0014 180° South 189 217 23,000  Level Seattle Center
Fri 02:46:13 PM 47.2739 -122.9992 178° South 190 219 23,000  Level Seattle Center
Fri 02:47:14 PM 47.2225 -122.9989 180° South 187 215 23,000  Level Seattle Center
Fri 02:48:15 PM 47.1711 -122.9983 180° South 188 216 23,000  Level Seattle Center
Fri 02:49:16 PM 47.1186 -122.9975 179° South 189 217 23,000  Level Seattle Center
Fri 02:50:17 PM 47.0572 -122.9958 179° South 186 214 23,000  Level Seattle Center
Fri 02:51:19 PM 47.0056 -122.9958 180° South 187 215 23,000  Level Seattle Center
Fri 02:52:20 PM 46.9539 -122.9939 179° South 187 215 23,000  Level Seattle Center
Fri 02:53:21 PM 46.9014 -122.9942 180° South 190 219 23,000  Level Seattle Center
Fri 02:54:22 PM 46.8489 -122.9914 178° South 192 221 23,000  Level Seattle Center
Fri 02:55:23 PM 46.7975 -122.9931 181° South 187 215 23,000  Level Seattle Center
Fri 02:56:24 PM 46.7458 -122.9919 179° South 188 216 23,000  Level Seattle Center
Fri 02:57:25 PM 46.6844 -122.9903 179° South 187 215 23,000  Level Seattle Center
Fri 02:58:27 PM 46.6342 -122.9914 181° South 184 212 23,000  Level Seattle Center
Fri 02:59:30 PM 46.5822 -122.9900 179° South 187 215 23,000  Level Seattle Center
Fri 03:00:31 PM 46.5297 -122.9892 179° South 190 219 23,000  Level Seattle Center
Fri 03:01:32 PM 46.4783 -122.9869 178° South 188 216 23,000  Level Seattle Center
Fri 03:02:33 PM 46.4264 -122.9864 180° South 189 217 23,000  Level Seattle Center
Fri 03:03:34 PM 46.3642 -122.9858 180° South 189 217 23,000  Level Seattle Center
Fri 03:04:35 PM 46.3108 -122.9853 180° South 192 221 23,000  Level Seattle Center
Fri 03:05:36 PM 46.2581 -122.9839 179° South 192 221 23,000  Level Seattle Center
Fri 03:06:37 PM 46.2058 -122.9814 178° South 190 219 23,000  Level Seattle Center
Fri 03:07:39 PM 46.1497 -122.9797 179° South 188 216 23,000  Level Seattle Center
Fri 03:08:40 PM 46.0975 -122.9800 180° South 188 216 23,000  Level Seattle Center
Fri 03:09:41 PM 46.0444 -122.9792 179° South 189 217 23,000  Level Seattle Center
Fri 03:10:42 PM 45.9919 -122.9775 179° South 189 217 23,000  Level Seattle Center
Fri 03:11:43 PM 45.9381 -122.9772 180° South 195 224 23,000  Level Seattle Center
Fri 03:12:44 PM 45.8847 -122.9750 178° South 194 223 23,000  Level Seattle Center
Fri 03:13:45 PM 45.8311 -122.9736 179° South 193 222 23,000  Level Seattle Center
Fri 03:14:46 PM 45.7772 -122.9722 179° South 194 223 23,000  Level Seattle Center
Fri 03:15:47 PM 45.7233 -122.9717 180° South 194 223 23,000  Level Seattle Center
Fri 03:16:48 PM 45.6575 -122.9694 179° South 196 226 23,000  Level Seattle Center
Fri 03:17:50 PM 45.6042 -122.9694 180° South 192 221 23,000  Level Seattle Center
Fri 03:18:51 PM 45.5492 -122.9686 179° South 195 224 23,000  Level Seattle Center
Fri 03:19:52 PM 45.4956 -122.9675 179° South 194 223 23,000  Level Seattle Center
Fri 03:20:53 PM 45.4403 -122.9661 179° South 199 229 23,000  Level Seattle Center
Fri 03:21:54 PM 45.3864 -122.9631 178° South 195 224 23,000  Level Seattle Center
Fri 03:22:55 PM 45.3322 -122.9619 179° South 196 226 23,000  Level Seattle Center
Fri 03:23:56 PM 45.2769 -122.9614 180° South 199 229 23,000  Level Seattle Center
Fri 03:24:57 PM 45.2231 -122.9597 179° South 195 224 23,000  Level Seattle Center
Fri 03:25:58 PM 45.1681 -122.9594 180° South 196 226 23,000  Level Seattle Center
Fri 03:27:00 PM 45.1133 -122.9586 179° South 196 226 23,000  Level Seattle Center
Fri 03:28:01 PM 45.0586 -122.9581 180° South 196 226 23,000  Level Seattle Center
Fri 03:29:02 PM 45.0033 -122.9578 180° South 197 227 23,000  Level Seattle Center
Fri 03:30:03 PM 44.9372 -122.9544 178° South 199 229 23,000  Level Seattle Center
Fri 03:31:04 PM 44.8817 -122.9542 180° South 199 229 23,000  Level Seattle Center
Fri 03:32:05 PM 44.8278 -122.9539 180° South 195 224 23,000  Level Seattle Center
Fri 03:33:06 PM 44.7722 -122.9519 179° South 197 227 23,000  Level Seattle Center
Fri 03:34:07 PM 44.7172 -122.9508 179° South 197 227 23,000  Level Seattle Center
Fri 03:35:08 PM 44.6611 -122.9497 179° South 200 230 23,000  Level Seattle Center
Fri 03:36:10 PM 44.6056 -122.9481 179° South 200 230 23,000  Level Seattle Center
Fri 03:37:11 PM 44.5506 -122.9469 179° South 197 227 23,000  Level Seattle Center
Fri 03:38:12 PM 44.4953 -122.9450 179° South 199 229 23,000  Level Seattle Center
Fri 03:39:13 PM 44.4394 -122.9444 180° South 200 230 23,000  Level Seattle Center
Fri 03:40:14 PM 44.3836 -122.9442 180° South 201 231 23,000  Level Seattle Center
Fri 03:41:15 PM 44.3214 -122.9433 179° South 200 230 23,000  Level Seattle Center
Fri 03:42:16 PM 44.2656 -122.9419 179° South 199 229 23,000  Level Seattle Center
Fri 03:43:17 PM 44.2094 -122.9414 180° South 200 230 23,000  Level Seattle Center
Fri 03:44:18 PM 44.1531 -122.9394 179° South 201 231 23,000  Level Seattle Center
Fri 03:45:19 PM 44.0972 -122.9394 180° South 200 230 23,000  Level Seattle Center
Fri 03:46:21 PM 44.0411 -122.9378 179° South 201 231 23,000  Level Seattle Center
Fri 03:47:22 PM 43.9856 -122.9378 180° South 200 230 23,000  Level Seattle Center
Fri 03:48:23 PM 43.9292 -122.9369 179° South 201 231 23,000  Level Seattle Center
Fri 03:49:24 PM 43.8728 -122.9356 179° South 202 232 23,000  Level Seattle Center
Fri 03:50:25 PM 43.8175 -122.9361 180° South 200 230 23,000  Level Seattle Center
Fri 03:51:26 PM 43.7500 -122.9339 179° South 202 232 23,000  Level Seattle Center
Fri 03:52:27 PM 43.6931 -122.9333 180° South 204 235 23,000  Level Seattle Center
Fri 03:53:28 PM 43.6378 -122.9317 179° South 199 229 23,000  Level Seattle Center
Fri 03:54:29 PM 43.5814 -122.9306 179° South 202 232 23,000  Level Seattle Center
Fri 03:55:30 PM 43.5256 -122.9286 179° South 200 230 23,000  Level Seattle Center
Fri 03:56:31 PM 43.4681 -122.9297 181° South 205 236 23,000  Level Seattle Center
Fri 03:57:32 PM 43.4117 -122.9283 179° South 203 234 23,000  Level Seattle Center
Fri 03:58:33 PM 43.3561 -122.9267 179° South 202 232 23,000  Level Seattle Center
Fri 03:59:34 PM 43.2994 -122.9253 179° South 203 234 23,000  Level Seattle Center
Fri 04:00:35 PM 43.2428 -122.9239 179° South 204 235 23,000  Level Seattle Center
Fri 04:01:36 PM 43.1864 -122.9236 180° South 204 235 23,000  Level Seattle Center
Fri 04:02:37 PM 43.1297 -122.9228 179° South 205 236 23,000  Level Seattle Center
Fri 04:03:38 PM 43.0728 -122.9217 179° South 205 236 23,000  Level Seattle Center
Fri 04:04:39 PM 43.0047 -122.9208 179° South 205 236 23,000  Level Seattle Center
Fri 04:05:40 PM 42.9472 -122.9203 180° South 207 238 23,000  Level Seattle Center
Fri 04:06:41 PM 42.8914 -122.9189 179° South 204 235 23,000  Level Seattle Center
Fri 04:07:42 PM 42.8342 -122.9169 179° South 205 236 23,000  Level Seattle Center
Fri 04:08:43 PM 42.7764 -122.9172 180° South 207 238 23,000  Level Seattle Center
Fri 04:09:44 PM 42.7217 -122.9161 179° South 205 236 23,000  Level Seattle Center
Fri 04:10:45 PM 42.6653 -122.9136 178° South 205 236 23,000  Level Seattle Center
Fri 04:11:46 PM 42.6075 -122.9133 180° South 207 238 23,000  Level Seattle Center
Fri 04:12:47 PM 42.5500 -122.9139 180° South 209 241 23,000  Level Seattle Center
Fri 04:13:48 PM 42.4933 -122.9133 180° South 206 237 23,000  Level Seattle Center
Fri 04:14:49 PM 42.4361 -122.8958 167° South 211 243 23,000  Level Seattle Center
Fri 04:15:50 PM 42.3703 -122.8672 162° South 209 241 23,000  Level Seattle Center
Fri 04:16:51 PM 42.3144 -122.8453 164° South 210 242 23,000  Level Seattle Center
Fri 04:17:52 PM 42.2594 -122.8231 163° South 209 241 23,000  Level Seattle Center
Fri 04:18:53 PM 42.2036 -122.8014 164° South 208 239 23,000  Level Seattle Center
Fri 04:19:54 PM 42.1475 -122.7797 164° South 211 243 23,000  Level Seattle Center
Fri 04:20:55 PM 42.0939 -122.7578 163° South 205 236 23,000  Level Seattle Center
Fri 04:21:56 PM 42.0386 -122.7347 163° South 208 239 23,000  Level Seattle Center
Fri 04:22:57 PM 41.9831 -122.7131 164° South 209 241 23,000  Level Seattle Center
Fri 04:23:58 PM 41.9278 -122.6906 163° South 209 241 23,000  Level Seattle Center
Fri 04:25:00 PM 41.8739 -122.6706 165° South 204 235 23,000  Level Seattle Center
Fri 04:26:01 PM 41.8189 -122.6483 163° South 208 239 23,000  Level Seattle Center
Fri 04:27:02 PM 41.7528 -122.6225 164° South 207 238 23,000  Level Seattle Center
Fri 04:28:03 PM 41.6972 -122.6006 164° South 208 239 23,000  Level Seattle Center
Fri 04:29:04 PM 41.6419 -122.5794 164° South 208 239 23,000  Level Seattle Center
Fri 04:30:05 PM 41.5864 -122.5575 164° South 208 239 23,000  Level Seattle Center
Fri 04:31:06 PM 41.5306 -122.5367 164° South 210 242 23,000  Level Seattle Center
Fri 04:32:07 PM 41.4750 -122.5147 164° South 209 241 23,000  Level Seattle Center
Fri 04:33:08 PM 41.4200 -122.4936 164° South 208 239 23,000  Level Seattle Center
Fri 04:34:09 PM 41.3592 -122.4708 164° South 206 237 23,000  Level Seattle Center
Fri 04:34:31 PM 41.3369 -122.4603 160° South 207 238 23,000  Level Oakland Center
Fri 04:35:33 PM 41.2817 -122.4406 165° South 206 237 23,000  Level Oakland Center
Fri 04:36:34 PM 41.2278 -122.4200 164° South 204 235 23,000  Level Oakland Center
Fri 04:37:36 PM 41.1728 -122.3978 163° South 205 236 23,000  Level Oakland Center
Fri 04:38:37 PM 41.1192 -122.3772 164° South 202 232 23,000  Level Oakland Center
Fri 04:39:39 PM 41.0636 -122.3533 162° South 208 239 23,000  Level Oakland Center
Fri 04:40:41 PM 41.0089 -122.3317 163° South 207 238 23,000  Level Oakland Center
Fri 04:41:42 PM 40.9431 -122.3078 165° South 205 236 23,000  Level Oakland Center
Fri 04:42:44 PM 40.8878 -122.2861 163° South 204 235 23,000  Level Oakland Center
Fri 04:43:45 PM 40.8325 -122.2661 165° South 205 236 23,000  Level Oakland Center
Fri 04:44:47 PM 40.7778 -122.2442 163° South 205 236 23,000  Level Oakland Center
Fri 04:45:48 PM 40.7222 -122.2233 164° South 207 238 23,000  Level Oakland Center
Fri 04:46:50 PM 40.6672 -122.2028 164° South 205 236 23,000  Level Oakland Center
Fri 04:47:52 PM 40.6119 -122.1814 164° South 206 237 23,000  Level Oakland Center
Fri 04:48:53 PM 40.5561 -122.1606 164° South 207 238 23,000  Level Oakland Center
Fri 04:49:55 PM 40.4897 -122.1353 164° South 207 238 23,000  Level Oakland Center
Fri 04:50:56 PM 40.4342 -122.1144 164° South 207 238 23,000  Level Oakland Center
Fri 04:51:58 PM 40.3783 -122.0933 164° South 207 238 23,000  Level Oakland Center
Fri 04:52:59 PM 40.3222 -122.0711 163° South 209 241 23,000  Level Oakland Center
Fri 04:54:01 PM 40.2656 -122.0500 164° South 211 243 23,000  Level Oakland Center
Fri 04:55:02 PM 40.2092 -122.0294 164° South 209 241 23,000  Level Oakland Center
Fri 04:56:04 PM 40.1531 -122.0086 164° South 209 241 23,000  Level Oakland Center
Fri 04:57:05 PM 40.0964 -121.9872 164° South 210 242 23,000  Level Oakland Center
Fri 04:58:07 PM 40.0397 -121.9667 164° South 211 243 23,000  Level Oakland Center
Fri 04:59:08 PM 39.9825 -121.9453 164° South 213 245 23,000  Level Oakland Center
Fri 05:00:10 PM 39.9153 -121.9217 165° South 210 242 23,000  Level Oakland Center
Fri 05:01:11 PM 39.8583 -121.8997 164° South 212 244 23,000  Level Oakland Center
Fri 05:02:13 PM 39.8019 -121.8794 165° South 212 244 23,000  Level Oakland Center
Fri 05:03:14 PM 39.7461 -121.8581 164° South 211 243 23,000  Level Oakland Center
Fri 05:04:16 PM 39.6897 -121.8375 164° South 210 242 23,000  Level Oakland Center
Fri 05:05:17 PM 39.6333 -121.8167 164° South 211 243 23,000  Level Oakland Center
Fri 05:06:19 PM 39.5775 -121.7956 164° South 210 242 23,000  Level Oakland Center
Fri 05:07:20 PM 39.5217 -121.7756 165° South 210 242 23,000  Level Oakland Center
Fri 05:08:21 PM 39.4647 -121.7544 164° South 212 244 23,000  Level Oakland Center
Fri 05:09:23 PM 39.3969 -121.7306 165° South 212 244 23,000 -49 Level Oakland Center
Fri 05:10:24 PM 39.3386 -121.7094 164° South 215 247 22,900 -390 Descending Oakland Center
Fri 05:11:26 PM 39.2756 -121.6875 165° South 229 264 22,200 -683 Descending Oakland Center
Fri 05:12:27 PM 39.2117 -121.6658 165° South 237 273 21,500 -732 Descending Oakland Center
Fri 05:13:29 PM 39.1469 -121.6431 165° South 239 275 20,700 -780 Descending Oakland Center
Fri 05:14:30 PM 39.0825 -121.6194 164° South 241 277 19,900 -876 Descending Oakland Center
Fri 05:14:58 PM 39.0500 -121.6000 155° Southeast 241 277 19,400 -878 Descending Northern Cal TRACON
Fri 05:15:52 PM 38.9833 -121.5833 169° South 238 274 18,700 -789 Descending Northern Cal TRACON
Fri 05:16:52 PM 38.9333 -121.5667 165° South 231 266 17,900 -714 Descending Northern Cal TRACON
Fri 05:17:58 PM 38.8667 -121.5333 159° South 225 259 17,200 -667 Descending Northern Cal TRACON
Fri 05:18:58 PM 38.8000 -121.5167 169° South 221 254 16,500 -700 Descending Northern Cal TRACON
Fri 05:19:58 PM 38.7333 -121.5000 169° South 220 253 15,800 -750 Descending Northern Cal TRACON
Fri 05:20:58 PM 38.6833 -121.4667 153° Southeast 233 268 15,000 -750 Descending Northern Cal TRACON
Fri 05:21:58 PM 38.6167 -121.4500 169° South 217 250 14,300 -678 Descending Northern Cal TRACON
Fri 05:22:53 PM 38.5667 -121.4333 165° South 213 245 13,700 -730 Descending Northern Cal TRACON
Fri 05:23:53 PM 38.5167 -121.4167 165° South 207 238 12,900 -700 Descending Northern Cal TRACON
Fri 05:24:53 PM 38.4500 -121.4167 180° South 207 238 12,300 -700 Descending Northern Cal TRACON
Fri 05:25:53 PM 38.4000 -121.4333 195° South 198 228 11,500 -750 Descending Northern Cal TRACON
Fri 05:26:53 PM 38.3500 -121.4333 180° South 197 227 10,800 -720 Descending Northern Cal TRACON
Fri 05:27:58 PM 38.2833 -121.4333 180° South 195 224 10,000 -720 Descending Northern Cal TRACON
Fri 05:28:58 PM 38.2333 -121.4333 180° South 196 226 9,300 -700 Descending Northern Cal TRACON
Fri 05:29:58 PM 38.1833 -121.4333 180° South 196 226 8,600 -610 Descending Northern Cal TRACON
Fri 05:30:56 PM 38.1242 -121.4397 185° South 196 226 8,100 -300 Descending Oakland Center
Fri 05:31:58 PM 38.0742 -121.4406 181° South 181 208 8,000 -48 Descending Oakland Center
Fri 05:33:00 PM 38.0281 -121.4431 182° South 169 194 8,000 -341 Level Oakland Center
Fri 05:34:01 PM 37.9797 -121.4458 183° South 170 196 7,300 -732 Descending Oakland Center
Fri 05:35:03 PM 37.9256 -121.4500 183° South 188 216 6,500 -814 Descending Oakland Center
Fri 05:35:59 PM 37.8667 -121.4500 180° South 188 216 5,700 -873 Descending Northern Cal TRACON
Fri 05:36:53 PM 37.8333 -121.4500 180° South 189 217 4,900 -842 Descending Northern Cal TRACON
Fri 05:37:53 PM 37.7667 -121.4500 180° South 188 216 4,100 -550 Descending Northern Cal TRACON
Fri 05:38:53 PM 37.7333 -121.4667 202° Southwest 168 193 3,800 -300 Descending Northern Cal TRACON
Fri 05:39:53 PM 37.7167 -121.5167 247° West 148 170 3,500 -143 Descending Northern Cal TRACON
Fri 05:40:59 PM 37.7000 -121.5667 247° West 138 159 3,500  Level Northern Cal TRACON
Fri 05:41:53 PM 37.6833 -121.6167 247° West 136 157 3,500 -300 Level Northern Cal TRACON
Fri 05:42:59 PM 37.7000 -121.6667 293° West 126 145 2,900 -714 Descending Northern Cal TRACON
Fri 05:43:59 PM 37.7000 -121.7000 270° West 123 142 2,000 -700 Descending Northern Cal TRACON
Fri 05:44:59 PM 37.7000 -121.7500 270° West 110 127 1,500 -250 Descending Northern Cal TRACON
Fri 05:45:59 PM 37.6833 -121.7667 218° Southwest 107 123 1,500  Level Northern Cal TRACON
Fri 05:46:59 PM 37.6833 -121.7667 83° East 107 123 1,500  Level Northern Cal TRACON

Login

Don't have an account? Register now (free) for customized features, flight alerts, and more!